Aérodrome :







RETROUVEZ-NOUS SUR...

 
LOGIN :

S'inscrire | Disclaimer

   EN    FR    IT 

 









Légende :    VFR   VFR Marginal   IFR   IFR Intensif   IFR Très Intensif
Visi : 
Plafond : 
>= 8 km
>= 3000ft
5 à 8 km
1000 à 3000 ft
1500m à 5 km
500 à 1000 ft
800 à 1500m
200 à 500 ft
< 800m
< 200 ft
Symboles :   Orages  Brouillard  Fortes neiges  Fortes précipitations  Vent > 20 kt






- Altitude de l'aérodrome : 39 ft
- Code IATA : YNA


CYNA - Natashquan

DERNIER METAR :
  • 031056Z AUTO 06002KT 9SM SCT003 10/10 A2993 RMK SLP137

METARs EXPIRÉS :
  • 031000Z AUTO 35003KT 310V010 1/2SM FG VV002 10/10 A2993 RMK SLP136
  • 030949Z AUTO 35003KT 1SM BR OVC002 10/09 A2992 RMK SLP134
  • 030947Z AUTO 35004KT 2SM BR OVC002 10/09 A2992 RMK SLP134
  • 030934Z AUTO 35004KT 2 1/2SM BR OVC002 10/10 A2992 RMK VIS VRB 3/4-3 SLP133
  • 030905Z AUTO 34004KT 6SM BR OVC002 10/10 A2991 RMK SLP130
  • 030852Z AUTO 34004KT 2SM BR OVC002 10/10 A2991 RMK VIS VRB 1-3 SLP130
  • 030851Z AUTO 34004KT 2 1/2SM BR OVC002 10/10 A2991 RMK VIS VRB 1 1/4-3 SLP130
  • 030807Z AUTO 32006KT 8SM BKN004 BKN007 09/09 A2991 RMK SLP128

TAF AMD TAF CYNA
Valide du 03 à 09h jusqu'au 03 à 20h UTC


030909Z 0309/0320 VRB03KT P6SM SCT002
TEMPO 0309/0313 4SM BR BKN002
FM031300 11006KT P6SM SCT015
BECMG 0313/0315 19010KT
FM031600 20010KT P6SM -SHRA OVC020 RMK FCST BASED ON AUTO OBS. NXT FCST BY 031400Z
FIR CZUL / Amérique du Nord



MET'MAP, la Météo Aéronautique d'un coup d'oeil ! - Copyright ORBIFLY Décembre 2007 - Disclaimer

ORBIFLY MET'MAP TEAM :

Programmation & Développement : Alexandra Zaïnal
Sur une idée originale de : Baudouin d'Aumeries
Assistance à la programmation : Marc-Olivier Méhu
Soutien technique & logistique : Manuel Goepfert

Contact : metmap@orbifly.com




SOURCES & CREDITS :

   NOAA